Time;durP1;ratioP1;P1;durP2;ratioP2;P2;SDS_P1;SDS_P2;PMS_P1;PMS_P2;Temp;Humidity;BMP_temperature;BMP_pressure;BME280_temperature;BME280_humidity;BME280_pressure;Samples;Min_cycle;Max_cycle;Signal;HPM_P1;HPM_P2
2022/06/26 00:02:18;;;;;;;4.68;2.63;;;;;;;23.61;57.40;101148.88;5034327;28;20267;-64
2022/06/26 00:04:44;;;;;;;4.03;2.10;;;;;;;23.61;57.36;101139.06;5033768;28;20088;-64
2022/06/26 00:07:09;;;;;;;4.47;2.38;;;;;;;23.60;57.30;101133.91;5034164;28;20033;-65
2022/06/26 00:09:35;;;;;;;3.90;2.05;;;;;;;23.59;57.20;101135.72;5034243;28;20503;-64
2022/06/26 00:12:00;;;;;;;4.53;2.22;;;;;;;23.60;57.26;101149.84;5033095;28;20049;-64
2022/06/26 00:14:25;;;;;;;5.15;2.17;;;;;;;23.59;57.14;101150.84;5034648;28;20029;-64
2022/06/26 00:16:51;;;;;;;3.58;2.13;;;;;;;23.59;57.11;101146.38;5034272;28;20480;-64
2022/06/26 00:19:17;;;;;;;4.05;2.28;;;;;;;23.57;57.31;101148.31;5033158;28;20055;-64
2022/06/26 00:21:42;;;;;;;3.53;2.13;;;;;;;23.58;57.37;101147.34;5034208;28;20036;-64
2022/06/26 00:24:08;;;;;;;5.32;2.65;;;;;;;23.57;57.02;101161.63;5033711;28;20021;-64
2022/06/26 00:26:33;;;;;;;3.90;2.20;;;;;;;23.57;57.04;101155.47;5033225;28;20030;-64
2022/06/26 00:28:58;;;;;;;3.90;2.10;;;;;;;23.57;57.04;101156.31;5033723;28;20032;-65
2022/06/26 00:31:24;;;;;;;4.27;2.23;;;;;;;23.56;57.21;101157.31;5034154;28;20057;-64
2022/06/26 00:33:49;;;;;;;4.38;2.17;;;;;;;23.56;57.10;101162.63;5032795;28;20283;-65
2022/06/26 00:36:14;;;;;;;4.97;2.57;;;;;;;23.55;57.45;101164.44;5033576;28;20222;-64
2022/06/26 00:38:39;;;;;;;3.70;2.20;;;;;;;23.55;57.36;101171.59;5033863;28;20357;-64
2022/06/26 00:41:05;;;;;;;4.47;2.45;;;;;;;23.54;57.23;101176.09;5032596;28;20771;-65
2022/06/26 00:43:31;;;;;;;4.15;2.63;;;;;;;23.54;57.11;101178.75;5033885;28;20047;-64
2022/06/26 00:45:56;;;;;;;4.03;2.40;;;;;;;23.54;57.08;101183.22;5032740;28;20537;-64
2022/06/26 00:48:22;;;;;;;4.83;2.50;;;;;;;23.53;56.92;101185.03;5033701;28;20026;-64
2022/06/26 00:50:47;;;;;;;4.38;2.60;;;;;;;23.53;57.17;101184.22;5033786;28;20259;-64
2022/06/26 00:53:13;;;;;;;5.15;2.50;;;;;;;23.52;57.13;101199.31;5032605;28;20021;-64
2022/06/26 00:55:38;;;;;;;3.40;2.30;;;;;;;23.52;56.99;101199.31;5033403;28;20053;-65
2022/06/26 00:58:03;;;;;;;4.05;2.40;;;;;;;23.51;56.94;101195.00;5033514;28;20465;-64
2022/06/26 01:00:29;;;;;;;4.63;2.30;;;;;;;23.50;56.99;101196.00;5032413;28;20128;-64
2022/06/26 01:02:54;;;;;;;3.50;2.38;;;;;;;23.50;57.07;101201.31;5033661;28;20090;-64
2022/06/26 01:05:19;;;;;;;4.10;2.58;;;;;;;23.50;56.92;101190.66;5033130;28;20491;-64
2022/06/26 01:07:45;;;;;;;4.07;2.65;;;;;;;23.49;57.12;101194.31;5032582;28;20480;-65
2022/06/26 01:10:11;;;;;;;4.60;2.72;;;;;;;23.50;56.80;101195.16;5032912;28;20067;-64
2022/06/26 01:12:36;;;;;;;4.20;2.67;;;;;;;23.50;57.03;101205.81;5033101;28;20022;-65
2022/06/26 01:15:05;;;;;;;4.47;2.83;;;;;;;23.48;56.98;101203.28;5032345;28;20027;-64
2022/06/26 01:17:30;;;;;;;4.50;2.70;;;;;;;23.49;56.83;101206.78;5033286;28;20025;-65
2022/06/26 01:19:56;;;;;;;4.80;2.97;;;;;;;23.49;57.00;101212.94;5032951;28;20079;-65
2022/06/26 01:22:26;;;;;;;4.50;3.03;;;;;;;23.48;57.17;101218.41;5032464;28;20029;-64
2022/06/26 01:24:51;;;;;;;5.13;2.80;;;;;;;23.46;56.92;101204.41;5032894;28;20080;-65
2022/06/26 01:27:16;;;;;;;4.93;3.20;;;;;;;23.47;57.10;101212.25;5032630;28;20380;-64
2022/06/26 01:29:41;;;;;;;4.88;3.03;;;;;;;23.46;57.01;101213.22;5032385;28;20357;-64
2022/06/26 01:32:07;;;;;;;5.70;3.10;;;;;;;23.45;56.84;101210.72;5032492;28;20026;-65
2022/06/26 01:34:33;;;;;;;4.28;2.88;;;;;;;23.45;57.11;101219.56;5032760;28;20326;-64
2022/06/26 01:36:58;;;;;;;4.32;2.83;;;;;;;23.45;56.80;101224.00;5031977;28;20469;-64
2022/06/26 01:39:23;;;;;;;4.40;3.00;;;;;;;23.44;56.92;101223.19;5032894;28;20060;-64
2022/06/26 01:41:49;;;;;;;4.30;3.10;;;;;;;23.43;57.25;101216.22;5033033;28;20282;-65
2022/06/26 01:44:15;;;;;;;4.38;2.83;;;;;;;23.43;56.88;101215.38;5032060;28;20847;-64
2022/06/26 01:46:40;;;;;;;5.32;3.08;;;;;;;23.43;56.81;101220.69;5032813;28;20117;-64
2022/06/26 01:49:06;;;;;;;4.90;3.15;;;;;;;23.42;56.69;101214.53;5032011;28;20108;-65
2022/06/26 01:51:31;;;;;;;4.75;3.03;;;;;;;23.41;56.74;101220.00;5032772;28;20021;-64
2022/06/26 01:53:56;;;;;;;6.22;3.40;;;;;;;23.42;56.72;101211.88;5032389;28;20021;-65
2022/06/26 01:56:22;;;;;;;4.65;3.28;;;;;;;23.40;57.01;101211.19;5032151;28;20113;-65
2022/06/26 01:58:47;;;;;;;5.30;3.15;;;;;;;23.41;57.07;101218.16;5032862;28;20068;-65
2022/06/26 02:01:12;;;;;;;5.82;3.10;;;;;;;23.40;57.09;101218.31;5032457;28;20040;-65
2022/06/26 02:03:38;;;;;;;5.22;3.22;;;;;;;23.41;56.81;101212.03;5032136;28;20076;-64
2022/06/26 02:06:03;;;;;;;4.65;2.97;;;;;;;23.40;57.03;101197.03;5032466;28;20545;-64
2022/06/26 02:08:28;;;;;;;5.13;3.33;;;;;;;23.40;56.97;101207.69;5032848;28;20026;-64
2022/06/26 02:13:42;;;;;;;;;;;;;;;23.39;56.91;101190.06;5037356;28;20036;-64
2022/06/26 02:16:10;;;;;;;4.78;3.15;;;;;;;23.38;57.00;101185.72;5036131;28;19913;-65
2022/06/26 02:18:36;;;;;;;5.05;3.45;;;;;;;23.38;56.71;101191.88;5035685;28;20026;-65
2022/06/26 02:21:04;;;;;;;4.95;3.55;;;;;;;23.38;56.85;101183.06;5035847;28;20366;-65
2022/06/26 02:23:30;;;;;;;5.57;3.60;;;;;;;23.37;56.85;101184.91;5036216;28;20063;-64
2022/06/26 02:25:55;;;;;;;5.45;3.90;;;;;;;23.36;57.00;101185.88;5035575;28;20057;-65
2022/06/26 02:28:20;;;;;;;5.35;3.50;;;;;;;23.38;56.69;101196.38;5036311;28;20023;-65
2022/06/26 02:30:46;;;;;;;5.53;3.78;;;;;;;23.36;56.84;101196.53;5036406;28;20017;-64
2022/06/26 02:33:12;;;;;;;5.90;3.80;;;;;;;23.35;56.71;101195.69;5034882;28;20032;-65
2022/06/26 02:35:37;;;;;;;5.60;3.47;;;;;;;23.35;56.86;101200.16;5035735;28;20099;-65
2022/06/26 02:38:02;;;;;;;4.70;3.50;;;;;;;23.35;56.33;101202.81;5035700;28;20025;-64
2022/06/26 02:40:29;;;;;;;5.00;3.50;;;;;;;23.35;56.55;101208.13;5035332;28;20037;-65
2022/06/26 02:42:56;;;;;;;6.47;3.92;;;;;;;23.34;56.41;101209.13;5035932;28;20029;-64
2022/06/26 02:45:21;;;;;;;5.15;3.42;;;;;;;23.33;56.47;101218.91;5035400;28;20108;-64
2022/06/26 02:47:47;;;;;;;5.15;3.25;;;;;;;23.32;56.30;101209.28;5036118;28;20436;-64
2022/06/26 02:50:13;;;;;;;5.88;3.85;;;;;;;23.34;56.41;101217.13;5035201;28;20083;-64
2022/06/26 02:52:38;;;;;;;4.60;3.33;;;;;;;23.33;56.19;101223.41;5035190;28;20024;-64
2022/06/26 02:55:05;;;;;;;5.05;3.22;;;;;;;23.32;56.13;101222.59;5035448;28;20086;-64
2022/06/26 02:57:31;;;;;;;5.03;3.42;;;;;;;23.31;55.96;101220.91;5035786;28;20026;-64
2022/06/26 02:59:56;;;;;;;5.47;3.28;;;;;;;23.30;55.83;101232.50;5034683;28;20397;-64
2022/06/26 03:02:23;;;;;;;5.70;3.35;;;;;;;23.28;55.91;101231.00;5035560;28;20384;-64
2022/06/26 03:04:48;;;;;;;5.75;3.22;;;;;;;23.30;56.22;101239.66;5035425;28;20079;-64
2022/06/26 03:07:14;;;;;;;5.65;3.10;;;;;;;23.27;56.26;101232.81;5034530;28;20104;-64
2022/06/26 03:09:39;;;;;;;4.72;3.20;;;;;;;23.28;55.77;101241.66;5035515;28;20033;-64
2022/06/26 03:12:05;;;;;;;5.30;3.30;;;;;;;23.27;55.94;101234.63;5035283;28;20151;-64
2022/06/26 03:14:31;;;;;;;5.25;3.25;;;;;;;23.26;55.94;101246.28;5034543;28;20290;-64
2022/06/26 03:16:56;;;;;;;5.03;3.30;;;;;;;23.24;55.87;101245.56;5035031;28;20495;-64
2022/06/26 03:19:21;;;;;;;6.60;3.05;;;;;;;23.23;55.68;101249.25;5035170;28;20022;-64
2022/06/26 03:21:47;;;;;;;5.07;3.20;;;;;;;23.23;56.04;101257.22;5034577;28;20029;-64
2022/06/26 03:24:12;;;;;;;5.82;3.10;;;;;;;23.22;55.70;101256.34;5034519;28;20494;-64
2022/06/26 03:26:38;;;;;;;5.70;3.53;;;;;;;23.21;55.53;101256.50;5035338;28;20020;-64
2022/06/26 03:29:06;;;;;;;5.85;3.47;;;;;;;23.20;55.36;101258.34;5034040;28;20033;-64
2022/06/26 03:31:31;;;;;;;4.80;2.80;;;;;;;23.19;55.45;101251.34;5035051;28;20013;-65
2022/06/26 03:33:57;;;;;;;4.93;3.10;;;;;;;23.18;55.31;101255.81;5034354;28;20572;-64
2022/06/26 03:36:23;;;;;;;5.05;3.05;;;;;;;23.17;55.50;101270.09;5034283;28;20076;-64
2022/06/26 03:38:49;;;;;;;5.47;2.90;;;;;;;23.16;55.63;101280.88;5035398;28;20431;-64
2022/06/26 03:41:14;;;;;;;5.28;3.00;;;;;;;23.15;55.34;101280.03;5034814;28;20472;-64
2022/06/26 03:43:40;;;;;;;5.32;3.08;;;;;;;23.14;55.21;101283.69;5034642;28;20072;-64
2022/06/26 03:46:05;;;;;;;4.50;2.72;;;;;;;23.15;55.41;101295.16;5035105;28;20026;-64
2022/06/26 03:48:31;;;;;;;5.25;3.03;;;;;;;23.14;55.57;101286.34;5034827;28;20025;-64
2022/06/26 03:50:57;;;;;;;6.93;2.75;;;;;;;23.12;55.59;101287.47;5033698;28;20029;-64
2022/06/26 03:53:23;;;;;;;4.70;2.80;;;;;;;23.12;55.19;101285.66;5034642;28;20487;-65
2022/06/26 03:55:48;;;;;;;5.97;2.90;;;;;;;23.12;55.04;101296.28;5033855;28;20091;-64
2022/06/26 03:58:14;;;;;;;5.65;3.00;;;;;;;23.11;54.99;101285.81;5034160;28;20522;-64
2022/06/26 04:00:39;;;;;;;4.07;2.53;;;;;;;23.11;55.43;101285.81;5034387;28;20031;-64
2022/06/26 04:03:06;;;;;;;4.10;2.55;;;;;;;23.10;55.52;101282.31;5033262;28;20026;-64
2022/06/26 04:05:33;;;;;;;4.63;2.58;;;;;;;23.11;54.78;101280.47;5034546;28;20096;-64
2022/06/26 04:07:59;;;;;;;5.18;3.10;;;;;;;23.09;55.33;101267.34;5034229;28;20022;-64
2022/06/26 04:10:24;;;;;;;5.82;2.80;;;;;;;23.10;55.16;101284.97;5033702;28;20022;-64
2022/06/26 04:12:50;;;;;;;4.20;2.50;;;;;;;23.10;55.03;101284.16;5034281;28;20431;-64
2022/06/26 04:15:15;;;;;;;4.95;2.53;;;;;;;23.09;55.26;101279.81;5033941;28;20962;-64
2022/06/26 04:17:41;;;;;;;5.07;2.40;;;;;;;23.08;55.25;101286.94;5033328;28;20029;-64
2022/06/26 04:20:07;;;;;;;4.20;2.72;;;;;;;23.07;55.05;101279.91;5034048;28;20044;-64
2022/06/26 04:22:32;;;;;;;4.43;2.58;;;;;;;23.07;54.86;101300.34;5034130;28;20507;-64
2022/06/26 04:24:58;;;;;;;4.72;2.30;;;;;;;23.07;55.22;101301.19;5033024;28;20056;-64
2022/06/26 04:27:23;;;;;;;4.68;2.30;;;;;;;23.06;54.97;101290.69;5033898;28;20022;-65
2022/06/26 04:29:48;;;;;;;5.27;2.40;;;;;;;23.06;54.82;101310.13;5033981;28;20041;-64
2022/06/26 04:32:14;;;;;;;4.43;2.63;;;;;;;23.06;55.16;101319.94;5032840;28;20632;-64
2022/06/26 04:34:39;;;;;;;4.93;2.53;;;;;;;23.07;55.16;101324.28;5033125;28;20385;-64
2022/06/26 04:37:04;;;;;;;6.43;2.38;;;;;;;23.06;55.00;101328.72;5033263;28;20451;-64
2022/06/26 04:39:30;;;;;;;4.43;2.42;;;;;;;23.06;54.95;101327.91;5033128;28;20017;-65
2022/06/26 04:41:56;;;;;;;4.20;2.50;;;;;;;23.07;54.68;101324.28;5033576;28;20574;-64
2022/06/26 04:44:22;;;;;;;3.70;1.92;;;;;;;23.04;55.17;101332.53;5033674;28;20139;-64
2022/06/26 04:46:47;;;;;;;4.13;2.40;;;;;;;23.05;55.17;101339.50;5032848;28;20045;-64
2022/06/26 04:49:13;;;;;;;4.53;2.53;;;;;;;23.05;54.82;101344.81;5033397;28;20034;-64
2022/06/26 04:51:39;;;;;;;4.50;2.40;;;;;;;23.04;54.74;101349.31;5033663;28;20025;-64
2022/06/26 04:54:06;;;;;;;5.15;2.40;;;;;;;23.05;54.97;101352.81;5032605;28;20029;-65
2022/06/26 04:56:32;;;;;;;4.63;2.50;;;;;;;23.05;54.81;101347.50;5033390;28;20120;-64
2022/06/26 04:58:58;;;;;;;4.38;2.33;;;;;;;23.05;55.04;101339.50;5033254;28;20045;-64
2022/06/26 05:01:24;;;;;;;5.38;2.55;;;;;;;23.04;54.91;101338.69;5032659;28;20087;-64
2022/06/26 05:03:49;;;;;;;4.97;2.40;;;;;;;23.06;55.09;101349.19;5033453;28;20091;-64
2022/06/26 05:06:14;;;;;;;4.35;2.38;;;;;;;23.05;54.90;101347.50;5032127;28;20537;-64
2022/06/26 05:08:40;;;;;;;5.30;2.90;;;;;;;23.05;54.95;101351.00;5033205;28;20033;-64
2022/06/26 05:11:05;;;;;;;5.30;2.50;;;;;;;23.05;54.93;101343.03;5032833;28;20457;-64
2022/06/26 05:13:31;;;;;;;5.35;2.85;;;;;;;23.06;55.00;101347.34;5032204;28;20021;-64
2022/06/26 05:15:57;;;;;;;5.05;2.65;;;;;;;23.06;55.17;101352.66;5032510;28;20037;-65
2022/06/26 05:18:23;;;;;;;4.28;2.50;;;;;;;23.07;55.05;101359.66;5033205;28;20484;-64
2022/06/26 05:20:49;;;;;;;6.90;2.50;;;;;;;23.06;54.61;101354.50;5032288;28;20021;-64
2022/06/26 05:23:14;;;;;;;4.30;2.30;;;;;;;23.05;54.87;101351.00;5032699;28;20032;-64
2022/06/26 05:25:40;;;;;;;7.43;2.90;;;;;;;23.05;54.74;101355.47;5032977;28;20115;-65
2022/06/26 05:28:06;;;;;;;5.05;2.60;;;;;;;23.05;54.76;101351.00;5031837;28;20021;-64
2022/06/26 05:30:31;;;;;;;6.18;2.58;;;;;;;23.06;54.90;101354.50;5032749;28;20515;-64
2022/06/26 05:32:57;;;;;;;4.70;2.42;;;;;;;23.07;54.74;101351.69;5032402;28;20034;-64
2022/06/26 05:35:22;;;;;;;5.87;2.80;;;;;;;23.06;54.79;101347.34;5031777;28;20034;-64
2022/06/26 05:37:47;;;;;;;5.50;2.75;;;;;;;23.08;55.02;101348.09;5032899;28;20303;-64
2022/06/26 05:40:13;;;;;;;4.93;2.63;;;;;;;23.08;54.76;101358.72;5032411;28;20072;-65
2022/06/26 05:42:38;;;;;;;5.13;3.00;;;;;;;23.09;54.58;101359.56;5031926;28;20067;-64
2022/06/26 05:45:04;;;;;;;6.17;2.73;;;;;;;23.09;54.66;101368.34;5032381;28;20033;-65
2022/06/26 05:47:29;;;;;;;5.97;2.83;;;;;;;23.10;54.66;101382.50;5032307;28;20761;-64
2022/06/26 05:49:54;;;;;;;5.53;2.83;;;;;;;23.09;54.77;101386.97;5031827;28;20025;-65
2022/06/26 05:52:19;;;;;;;5.03;2.50;;;;;;;23.10;55.00;101377.19;5032441;28;20274;-64
2022/06/26 05:54:45;;;;;;;4.95;2.63;;;;;;;23.11;55.05;101392.13;5032538;28;20057;-64
2022/06/26 05:57:10;;;;;;;5.10;2.80;;;;;;;23.11;54.86;101398.28;5031476;28;20385;-65
2022/06/26 05:59:35;;;;;;;4.93;2.57;;;;;;;23.12;54.68;101392.00;5032378;28;20056;-65
2022/06/26 06:02:00;;;;;;;4.73;2.60;;;;;;;23.12;55.13;101396.47;5032118;28;20274;-64
2022/06/26 06:04:26;;;;;;;5.32;2.95;;;;;;;23.12;54.91;101393.81;5031628;28;20270;-65
2022/06/26 06:06:51;;;;;;;4.60;2.47;;;;;;;23.13;54.55;101398.13;5032611;28;20025;-64
2022/06/26 06:09:17;;;;;;;5.88;2.83;;;;;;;23.12;55.04;101401.81;5032345;28;20104;-64
2022/06/26 06:11:42;;;;;;;7.72;2.90;;;;;;;23.14;55.22;101403.31;5031984;28;20048;-64
2022/06/26 06:14:07;;;;;;;6.45;2.90;;;;;;;23.13;54.90;101396.34;5032099;28;20389;-65
2022/06/26 06:16:33;;;;;;;4.60;2.47;;;;;;;23.14;54.81;101398.00;5031579;28;20032;-64
2022/06/26 06:18:58;;;;;;;4.60;2.22;;;;;;;23.14;55.03;101402.47;5032314;28;20336;-64
2022/06/26 06:21:23;;;;;;;5.77;2.40;;;;;;;23.14;54.91;101387.34;5032555;28;20021;-64
2022/06/26 06:23:48;;;;;;;5.20;2.40;;;;;;;23.14;54.85;101391.84;5031809;28;20274;-65
2022/06/26 06:26:15;;;;;;;4.17;2.27;;;;;;;23.14;55.07;101389.19;5031881;28;20337;-64
2022/06/26 06:28:40;;;;;;;4.68;2.42;;;;;;;23.14;55.14;101394.50;5032238;28;20366;-65
2022/06/26 06:31:05;;;;;;;4.70;2.30;;;;;;;23.15;54.99;101398.84;5031098;28;20049;-64
2022/06/26 06:33:31;;;;;;;4.90;2.53;;;;;;;23.14;54.81;101408.63;5031921;28;20028;-64
2022/06/26 06:35:56;;;;;;;4.80;2.50;;;;;;;23.15;54.87;101420.94;5032053;28;20029;-64
2022/06/26 06:38:22;;;;;;;4.38;2.25;;;;;;;23.15;54.87;101420.13;5031419;28;20018;-65
2022/06/26 06:40:47;;;;;;;4.50;2.28;;;;;;;23.15;54.96;101410.31;5032293;28;20041;-64
2022/06/26 06:43:13;;;;;;;5.38;2.45;;;;;;;23.12;55.23;101417.75;5031924;28;20096;-65
2022/06/26 06:45:39;;;;;;;4.97;2.30;;;;;;;23.15;55.23;101422.78;5031293;28;20030;-66
2022/06/26 06:48:05;;;;;;;5.03;2.65;;;;;;;23.16;55.17;101437.72;5031936;28;20030;-67
2022/06/26 06:50:31;;;;;;;5.93;2.88;;;;;;;23.17;55.58;101442.06;5032299;28;20032;-66
2022/06/26 06:52:56;;;;;;;4.65;2.13;;;;;;;23.20;55.54;101448.94;5031019;28;20022;-65
2022/06/26 06:55:22;;;;;;;4.75;2.47;;;;;;;23.22;55.17;101462.91;5032035;28;20040;-68
2022/06/26 06:57:47;;;;;;;5.15;2.55;;;;;;;23.21;55.06;101466.56;5031871;28;20021;-67
2022/06/26 07:00:12;;;;;;;7.07;2.67;;;;;;;23.21;55.37;101470.06;5033954;28;20079;-67
2022/06/26 07:02:38;;;;;;;4.80;2.20;;;;;;;23.23;55.62;101475.25;5035727;28;20267;-67
2022/06/26 07:05:06;;;;;;;7.32;2.50;;;;;;;23.25;55.46;101491.88;5035294;28;20030;-67
2022/06/26 07:07:32;;;;;;;5.57;2.03;;;;;;;23.26;55.52;101489.09;5034691;28;20036;-66
2022/06/26 07:09:57;;;;;;;4.80;2.40;;;;;;;23.29;55.49;101483.47;5035023;28;20025;-66
2022/06/26 07:12:22;;;;;;;7.43;2.15;;;;;;;23.31;55.25;101492.16;5035344;28;20029;-65
2022/06/26 07:14:47;;;;;;;5.57;2.38;;;;;;;23.32;55.43;101492.97;5034844;28;20056;-65
2022/06/26 07:17:14;;;;;;;6.50;2.20;;;;;;;23.34;55.34;101493.69;5034802;28;20476;-65
2022/06/26 07:19:39;;;;;;;4.95;2.40;;;;;;;23.34;55.59;101494.53;5034867;28;20087;-66
2022/06/26 07:22:05;;;;;;;4.45;2.25;;;;;;;23.36;55.21;101492.53;5034627;28;20101;-65
2022/06/26 07:24:31;;;;;;;4.80;2.03;;;;;;;23.37;55.44;101477.44;5034883;28;20491;-65
2022/06/26 07:26:56;;;;;;;5.85;2.03;;;;;;;23.41;55.37;101492.13;5034074;28;20033;-66
2022/06/26 07:29:21;;;;;;;5.30;2.20;;;;;;;23.40;55.31;101490.47;5034975;28;20443;-65
2022/06/26 07:31:46;;;;;;;4.82;2.25;;;;;;;23.41;54.98;101486.78;5035033;28;20540;-65
2022/06/26 07:34:18;;;;;;;4.65;2.20;;;;;;;23.44;55.48;101496.31;5033509;28;20041;-65
2022/06/26 07:36:48;;;;;;;5.63;2.55;;;;;;;23.43;55.07;101500.81;5034938;28;20141;-64
2022/06/26 07:39:15;;;;;;;4.15;1.98;;;;;;;23.44;55.47;101496.31;5034559;28;20036;-65
2022/06/26 07:41:42;;;;;;;4.47;2.17;;;;;;;23.45;55.02;101505.97;5033884;28;20030;-65
2022/06/26 07:44:08;;;;;;;5.40;2.20;;;;;;;23.44;55.47;101497.16;5034527;28;20075;-65
2022/06/26 07:46:34;;;;;;;5.70;2.38;;;;;;;23.46;55.27;101502.31;5034845;28;20026;-66
2022/06/26 07:49:02;;;;;;;6.82;2.33;;;;;;;23.46;55.12;101500.50;5033775;28;20029;-64
2022/06/26 07:51:28;;;;;;;7.00;2.20;;;;;;;23.46;55.48;101505.81;5034650;28;20469;-62
2022/06/26 07:53:53;;;;;;;6.35;2.55;;;;;;;23.47;55.33;101498.69;5034624;28;20116;-64
2022/06/26 07:56:19;;;;;;;5.00;2.20;;;;;;;23.44;55.44;101498.97;5033255;28;20033;-65
2022/06/26 07:58:44;;;;;;;6.40;2.35;;;;;;;23.44;55.57;101501.63;5034490;28;20321;-62
2022/06/26 08:01:09;;;;;;;5.50;2.00;;;;;;;23.43;55.73;101510.59;5034009;28;20053;-62
2022/06/26 08:03:35;;;;;;;6.53;2.20;;;;;;;23.43;55.92;101508.78;5033725;28;20033;-66
2022/06/26 08:06:00;;;;;;;6.28;2.25;;;;;;;23.48;55.45;101522.50;5034143;28;20488;-64
2022/06/26 08:08:26;;;;;;;5.32;2.15;;;;;;;23.52;55.10;101523.03;5034222;28;20017;-61
2022/06/26 08:10:51;;;;;;;6.55;2.30;;;;;;;23.52;55.43;101521.19;5033327;28;20030;-64
2022/06/26 08:13:17;;;;;;;5.97;2.20;;;;;;;23.54;55.25;101521.91;5034097;28;20021;-66
2022/06/26 08:15:42;;;;;;;8.27;2.50;;;;;;;23.60;55.39;101524.97;5033924;28;20036;-65
2022/06/26 08:18:07;;;;;;;5.70;2.17;;;;;;;23.64;54.65;101519.22;5033208;28;20060;-61
2022/06/26 08:20:33;;;;;;;6.05;2.35;;;;;;;23.65;54.42;101525.38;5034156;28;20753;-62
2022/06/26 08:22:58;;;;;;;6.43;3.20;;;;;;;23.63;52.51;101532.66;5033055;28;20469;-64
2022/06/26 08:25:24;;;;;;;7.95;3.13;;;;;;;23.34;53.83;101534.41;5033976;28;20495;-65
2022/06/26 08:27:49;;;;;;;6.68;3.00;;;;;;;22.93;52.73;101536.38;5033780;28;20036;-65
2022/06/26 08:30:15;;;;;;;5.65;3.00;;;;;;;22.58;53.81;101524.44;5032995;28;20033;-64
2022/06/26 08:32:40;;;;;;;5.28;2.53;;;;;;;22.26;55.90;101527.31;5034016;28;20083;-65
2022/06/26 08:35:06;;;;;;;8.02;3.47;;;;;;;22.01;57.10;101520.66;5033264;28;20386;-66
2022/06/26 08:37:32;;;;;;;5.80;2.75;;;;;;;21.62;58.21;101512.50;5033291;28;20035;-67
2022/06/26 08:39:57;;;;;;;5.30;2.53;;;;;;;21.36;58.45;101512.88;5033477;28;20029;-66
2022/06/26 08:42:25;;;;;;;6.57;2.90;;;;;;;21.20;58.51;101519.50;5033625;28;20073;-65
2022/06/26 08:44:51;;;;;;;6.32;3.08;;;;;;;21.05;60.46;101530.53;5033097;28;20040;-65
2022/06/26 08:47:21;;;;;;;5.97;2.90;;;;;;;20.88;61.58;101538.06;5033172;28;20029;-66
2022/06/26 08:49:47;;;;;;;5.15;2.80;;;;;;;20.76;60.90;101536.41;5033525;28;20033;-68
2022/06/26 08:52:18;;;;;;;5.05;2.80;;;;;;;20.69;60.18;101536.06;5032451;28;20028;-65
2022/06/26 08:54:44;;;;;;;4.78;2.25;;;;;;;20.68;61.28;101544.13;5033286;28;20075;-66
2022/06/26 08:57:09;;;;;;;5.78;2.58;;;;;;;20.65;60.54;101546.06;5033264;28;20029;-67
2022/06/26 08:59:35;;;;;;;4.70;2.35;;;;;;;20.62;61.46;101532.22;5032442;28;20041;-66
2022/06/26 09:02:00;;;;;;;4.40;2.42;;;;;;;20.57;58.86;101529.94;5033090;28;20052;-66
2022/06/26 09:04:25;;;;;;;6.15;2.67;;;;;;;20.54;60.82;101537.28;5033395;28;20025;-68
2022/06/26 09:06:51;;;;;;;5.53;2.50;;;;;;;20.51;59.43;101542.84;5032376;28;20045;-68
2022/06/26 09:09:24;;;;;;;5.60;2.60;;;;;;;20.48;59.72;101543.91;5033129;28;20033;-64
2022/06/26 09:11:58;;;;;;;4.93;2.50;;;;;;;20.57;60.43;101535.25;5033379;28;20032;-64
2022/06/26 09:14:24;;;;;;;6.15;2.33;;;;;;;20.81;60.19;101528.94;5032498;28;20032;-64
2022/06/26 09:16:52;;;;;;;7.45;2.03;;;;;;;21.11;59.61;101528.22;5033122;28;20033;-65
2022/06/26 09:19:33;;;;;;;5.15;2.03;;;;;;;21.42;58.53;101527.44;5032081;28;20419;-66
2022/06/26 09:22:06;;;;;;;3.33;1.60;;;;;;;21.66;57.58;101521.88;5032117;28;20083;-64
2022/06/26 09:24:36;;;;;;;5.60;2.30;;;;;;;21.71;56.18;101538.25;5033189;28;20075;-65
2022/06/26 09:27:04;;;;;;;7.43;2.30;;;;;;;21.52;56.90;101539.84;5031891;28;20029;-63
2022/06/26 09:29:30;;;;;;;4.25;2.15;;;;;;;21.31;57.13;101542.44;5033069;28;20041;-63
2022/06/26 09:31:55;;;;;;;3.92;1.95;;;;;;;21.11;59.02;101556.50;5032770;28;20025;-63
2022/06/26 09:34:24;;;;;;;5.95;2.45;;;;;;;20.95;59.94;101560.44;5031941;28;20432;-63
2022/06/26 09:37:01;;;;;;;5.22;2.92;;;;;;;20.83;59.88;101546.38;5033106;28;20040;-64
2022/06/26 09:39:27;;;;;;;7.15;2.63;;;;;;;20.79;59.90;101533.50;5032921;28;20080;-63
2022/06/26 09:41:52;;;;;;;5.10;2.80;;;;;;;20.72;61.08;101535.00;5032026;28;20025;-63
2022/06/26 09:44:19;;;;;;;6.60;3.22;;;;;;;20.63;60.12;101541.81;5032344;28;20096;-63
2022/06/26 09:46:45;;;;;;;6.13;2.72;;;;;;;20.64;59.89;101543.56;5032536;28;20105;-62
2022/06/26 09:49:11;;;;;;;6.35;2.83;;;;;;;20.64;59.95;101549.69;5031662;28;20124;-63
2022/06/26 09:51:36;;;;;;;6.95;2.67;;;;;;;20.57;59.81;101544.97;5032587;28;20053;-62
2022/06/26 09:54:04;;;;;;;6.00;2.47;;;;;;;20.51;60.39;101554.25;5032174;28;20021;-61
2022/06/26 09:56:30;;;;;;;5.97;2.25;;;;;;;20.51;60.44;101564.03;5031745;28;20029;-62
2022/06/26 09:58:57;;;;;;;5.75;2.72;;;;;;;20.50;62.30;101562.31;5032303;28;20026;-63
2022/06/26 10:06:54;;;;;;;4.50;2.47;;;;;;;20.38;63.13;101556.22;5032470;28;20091;-61
2022/06/26 10:09:20;;;;;;;5.72;2.40;;;;;;;20.38;60.62;101564.16;5031498;28;20033;-61
2022/06/26 10:11:45;;;;;;;6.47;2.58;;;;;;;20.36;60.07;101566.06;5032300;28;20453;-61
2022/06/26 10:14:16;;;;;;;7.55;2.92;;;;;;;20.38;61.15;101572.09;5032310;28;20028;-61
2022/06/26 10:16:53;;;;;;;6.03;2.42;;;;;;;20.39;63.29;101579.91;5031577;28;20052;-61
2022/06/26 10:19:25;;;;;;;6.15;2.33;;;;;;;20.36;62.15;101581.94;5031957;28;20046;-61
2022/06/26 10:21:50;;;;;;;4.18;2.53;;;;;;;20.36;64.58;101574.00;5032508;28;20037;-62
2022/06/26 10:24:16;;;;;;;8.63;2.92;;;;;;;20.36;61.71;101579.31;5031136;28;20033;-62
2022/06/26 10:27:00;;;;;;;6.43;2.35;;;;;;;20.38;62.31;101567.66;5032517;28;20032;-61
2022/06/26 10:29:39;;;;;;;4.45;2.40;;;;;;;20.40;62.64;101571.00;5032264;28;20053;-64
2022/06/26 10:32:07;;;;;;;6.05;2.70;;;;;;;20.50;61.64;101578.22;5031983;28;20495;-61
2022/06/26 10:34:33;;;;;;;6.90;2.38;;;;;;;20.57;60.71;101580.25;5034618;28;20052;-62
2022/06/26 10:37:10;;;;;;;5.80;2.40;;;;;;;20.70;60.80;101572.19;5034899;28;20026;-61
2022/06/26 10:39:56;;;;;;;4.47;2.20;;;;;;;20.88;60.91;101575.13;5035815;28;20029;-61
2022/06/26 10:45:10;;;;;;;4.05;1.88;;;;;;;21.23;60.14;101567.91;5035064;28;20040;-65
2022/06/26 10:47:46;;;;;;;6.70;1.85;;;;;;;21.45;59.67;101575.75;5036091;28;20034;-66
2022/06/26 10:50:32;;;;;;;5.22;2.13;;;;;;;21.66;59.20;101575.78;5035709;28;20025;-68
2022/06/26 10:53:26;;;;;;;5.45;1.90;;;;;;;21.87;57.98;101573.13;5034735;28;20417;-69
2022/06/26 10:55:55;;;;;;;4.37;2.10;;;;;;;22.04;57.33;101570.81;5035802;28;20030;-64
2022/06/26 10:58:24;;;;;;;3.83;1.90;;;;;;;22.16;56.91;101571.53;5034679;28;20021;-61
2022/06/26 11:00:52;;;;;;;6.68;2.63;;;;;;;22.25;56.15;101579.53;5035744;28;20056;-61
2022/06/26 11:03:19;;;;;;;7.45;2.70;;;;;;;22.34;55.82;101583.25;5035246;28;20030;-61
2022/06/26 11:05:50;;;;;;;5.25;2.78;;;;;;;22.42;56.13;101579.94;5034704;28;20021;-60
2022/06/26 11:08:30;;;;;;;5.55;2.55;;;;;;;22.48;56.23;101581.19;5035035;28;20569;-59
2022/06/26 11:11:01;;;;;;;5.05;2.95;;;;;;;22.54;56.09;101572.69;5035309;28;20025;-59
2022/06/26 11:13:26;;;;;;;6.95;3.17;;;;;;;22.58;56.08;101561.63;5034827;28;20021;-59
2022/06/26 11:15:51;;;;;;;5.78;3.30;;;;;;;22.63;55.90;101562.06;5035356;28;20029;-60
2022/06/26 11:18:17;;;;;;;8.13;3.23;;;;;;;22.68;55.95;101556.34;5035017;28;20485;-60
2022/06/26 11:20:47;;;;;;;7.30;3.17;;;;;;;22.74;55.85;101554.97;5034425;28;20285;-60
2022/06/26 11:23:20;;;;;;;9.50;3.22;;;;;;;22.79;55.59;101555.38;5035113;28;20037;-60
2022/06/26 11:25:53;;;;;;;5.57;2.90;;;;;;;22.85;55.64;101554.00;5035277;28;20037;-62
2022/06/26 11:28:19;;;;;;;4.93;2.80;;;;;;;22.87;55.62;101550.22;5034927;28;20033;-61
2022/06/26 11:30:46;;;;;;;7.95;3.25;;;;;;;22.92;55.66;101547.13;5035367;28;20033;-61
2022/06/26 11:33:11;;;;;;;5.07;2.90;;;;;;;22.95;55.22;101546.84;5033865;28;20488;-61